createdAt,value
2019-03-29T00:00:04.369Z,0.47
2019-03-29T00:15:04.418Z,0.52
2019-03-29T00:30:04.883Z,0.53
2019-03-29T00:45:04.902Z,0.77
2019-03-29T01:00:04.964Z,0.64
2019-03-29T01:15:04.985Z,0.56
2019-03-29T01:30:05.023Z,0.55
2019-03-29T01:45:05.105Z,0.5
2019-03-29T02:00:05.872Z,0.55
2019-03-29T02:15:05.937Z,0.53
2019-03-29T02:30:05.978Z,0.48
2019-03-29T02:45:06.263Z,0.54
2019-03-29T03:00:06.442Z,0.45
2019-03-29T03:15:06.543Z,0.54
2019-03-29T03:30:06.402Z,0.53
2019-03-29T03:45:06.413Z,0.55
2019-03-29T04:00:06.454Z,0.58
2019-03-29T04:15:06.776Z,0.6
2019-03-29T04:30:07.159Z,0.49
2019-03-29T04:45:07.512Z,0.47
2019-03-29T05:00:08.451Z,0.51
2019-03-29T05:15:08.519Z,0.55
2019-03-29T05:30:08.560Z,0.63
2019-03-29T05:45:09.341Z,1.3
2019-03-29T06:00:09.258Z,1.65
2019-03-29T06:15:09.270Z,1.18
2019-03-29T06:30:09.280Z,0.79
2019-03-29T06:45:09.274Z,0.72
2019-03-29T07:00:09.311Z,0.67
2019-03-29T07:15:10.920Z,0.53
2019-03-29T07:30:12.007Z,0.6
2019-03-29T07:45:02.565Z,0.48
2019-03-29T08:00:03.306Z,0.52
2019-03-29T08:15:03.185Z,0.49
2019-03-29T08:45:03.673Z,0.64
2019-03-29T09:00:03.913Z,0.8
2019-03-29T09:15:04.364Z,0.88
2019-03-29T09:30:05.807Z,0.6
2019-03-29T09:45:11.670Z,0.46
2019-03-29T10:00:20.719Z,0.59
2019-03-29T10:15:06.518Z,0.72
2019-03-29T10:30:07.247Z,0.86
2019-03-29T10:45:08.596Z,0.74
2019-03-29T11:00:08.590Z,0.63
2019-03-29T11:15:08.571Z,0.71
2019-03-29T11:30:08.558Z,0.74
2019-03-29T11:45:08.756Z,0.65
2019-03-29T12:00:10.163Z,0.67
2019-03-29T12:15:10.218Z,0.63
2019-03-29T12:30:06.205Z,0.57
2019-03-29T12:45:07.367Z,0.58
2019-03-29T13:00:07.522Z,0.76
2019-03-29T13:15:08.062Z,0.8
2019-03-29T13:30:08.662Z,0.66
2019-03-29T13:45:08.417Z,0.69
2019-03-29T14:30:10.324Z,0.72
2019-03-29T14:45:10.459Z,0.66
2019-03-29T15:15:07.981Z,0.83
2019-03-29T15:30:07.949Z,0.84
2019-03-29T15:45:19.543Z,0.68
2019-03-29T16:00:08.863Z,0.67
2019-03-29T16:15:09.078Z,0.51
2019-03-29T16:30:09.159Z,0.62
2019-03-29T17:15:10.262Z,0.87
2019-03-29T18:00:12.098Z,0.93
2019-03-29T18:45:04.619Z,0.65
2019-03-29T19:00:04.747Z,0.74
2019-03-29T19:15:04.670Z,0.75
2019-03-29T19:30:06.256Z,0.74
2019-03-29T19:45:07.510Z,0.83
2019-03-29T20:00:07.566Z,0.72
2019-03-29T20:15:07.655Z,0.65
2019-03-29T20:30:07.953Z,0.73
2019-03-29T20:45:07.956Z,0.68
2019-03-29T21:00:08.032Z,0.68
2019-03-29T21:15:08.638Z,0.73
2019-03-29T21:30:08.779Z,0.65
2019-03-29T21:45:09.283Z,0.72
2019-03-29T22:00:09.361Z,0.7
2019-03-29T22:15:09.435Z,0.85
2019-03-29T22:30:09.513Z,0.73
2019-03-29T22:45:09.693Z,0.83
2019-03-29T23:00:09.972Z,0.78
2019-03-29T23:15:10.275Z,0.63
2019-03-29T23:45:10.593Z,0.72
